sensor_id;sensor_type;location;lat;lon;timestamp;P1;durP1;ratioP1;P2;durP2;ratioP2
15679;SDS011;15488;48.114;11.532;2023-08-17T00:00:10;7.23;;;6.53;;
15679;SDS011;15488;48.114;11.532;2023-08-17T00:02:39;7.47;;;6.87;;
15679;SDS011;15488;48.114;11.532;2023-08-17T00:05:06;7.03;;;6.33;;
15679;SDS011;15488;48.114;11.532;2023-08-17T00:07:34;7.77;;;7.07;;
15679;SDS011;15488;48.114;11.532;2023-08-17T00:10:02;7.77;;;7.07;;
15679;SDS011;15488;48.114;11.532;2023-08-17T00:12:31;10.30;;;9.20;;
15679;SDS011;15488;48.114;11.532;2023-08-17T00:14:58;9.50;;;8.60;;
15679;SDS011;15488;48.114;11.532;2023-08-17T00:17:26;6.97;;;6.33;;
15679;SDS011;15488;48.114;11.532;2023-08-17T00:19:55;8.10;;;6.33;;
15679;SDS011;15488;48.114;11.532;2023-08-17T00:22:22;6.67;;;6.07;;
15679;SDS011;15488;48.114;11.532;2023-08-17T00:24:50;6.67;;;6.07;;
15679;SDS011;15488;48.114;11.532;2023-08-17T00:27:17;6.53;;;5.93;;
15679;SDS011;15488;48.114;11.532;2023-08-17T00:29:46;6.60;;;5.90;;
15679;SDS011;15488;48.114;11.532;2023-08-17T00:32:13;6.23;;;5.63;;
15679;SDS011;15488;48.114;11.532;2023-08-17T00:34:41;6.50;;;5.90;;
15679;SDS011;15488;48.114;11.532;2023-08-17T00:37:08;6.77;;;6.00;;
15679;SDS011;15488;48.114;11.532;2023-08-17T00:39:35;6.30;;;5.73;;
15679;SDS011;15488;48.114;11.532;2023-08-17T00:42:03;6.50;;;5.87;;
15679;SDS011;15488;48.114;11.532;2023-08-17T00:44:33;6.30;;;5.70;;
15679;SDS011;15488;48.114;11.532;2023-08-17T00:47:01;6.73;;;5.63;;
15679;SDS011;15488;48.114;11.532;2023-08-17T00:49:29;6.47;;;5.87;;
15679;SDS011;15488;48.114;11.532;2023-08-17T00:51:57;6.10;;;5.60;;
15679;SDS011;15488;48.114;11.532;2023-08-17T00:54:25;6.50;;;5.90;;
15679;SDS011;15488;48.114;11.532;2023-08-17T00:56:55;6.70;;;5.87;;
15679;SDS011;15488;48.114;11.532;2023-08-17T00:59:24;6.40;;;5.80;;
15679;SDS011;15488;48.114;11.532;2023-08-17T01:01:52;7.83;;;5.97;;
15679;SDS011;15488;48.114;11.532;2023-08-17T01:04:20;6.53;;;5.93;;
15679;SDS011;15488;48.114;11.532;2023-08-17T01:06:48;6.10;;;5.53;;
15679;SDS011;15488;48.114;11.532;2023-08-17T01:09:16;6.37;;;5.77;;
15679;SDS011;15488;48.114;11.532;2023-08-17T01:11:45;6.57;;;6.07;;
15679;SDS011;15488;48.114;11.532;2023-08-17T01:14:20;6.40;;;5.87;;
15679;SDS011;15488;48.114;11.532;2023-08-17T01:16:58;6.60;;;6.00;;
15679;SDS011;15488;48.114;11.532;2023-08-17T01:19:31;6.50;;;5.90;;
15679;SDS011;15488;48.114;11.532;2023-08-17T01:22:00;6.30;;;5.70;;
15679;SDS011;15488;48.114;11.532;2023-08-17T01:24:31;6.00;;;5.40;;
15679;SDS011;15488;48.114;11.532;2023-08-17T01:26:59;6.43;;;5.83;;
15679;SDS011;15488;48.114;11.532;2023-08-17T01:29:26;6.43;;;5.83;;
15679;SDS011;15488;48.114;11.532;2023-08-17T01:31:57;6.17;;;5.57;;
15679;SDS011;15488;48.114;11.532;2023-08-17T01:34:34;6.30;;;5.80;;
15679;SDS011;15488;48.114;11.532;2023-08-17T01:37:07;6.00;;;5.50;;
15679;SDS011;15488;48.114;11.532;2023-08-17T01:39:37;6.13;;;5.43;;
15679;SDS011;15488;48.114;11.532;2023-08-17T01:42:08;6.40;;;5.80;;
15679;SDS011;15488;48.114;11.532;2023-08-17T01:44:36;6.50;;;5.87;;
15679;SDS011;15488;48.114;11.532;2023-08-17T01:47:04;6.20;;;5.60;;
15679;SDS011;15488;48.114;11.532;2023-08-17T01:49:32;8.23;;;5.97;;
15679;SDS011;15488;48.114;11.532;2023-08-17T01:51:59;6.10;;;5.50;;
15679;SDS011;15488;48.114;11.532;2023-08-17T01:54:27;6.20;;;5.70;;
15679;SDS011;15488;48.114;11.532;2023-08-17T01:56:56;6.40;;;5.70;;
15679;SDS011;15488;48.114;11.532;2023-08-17T01:59:24;6.33;;;5.40;;
15679;SDS011;15488;48.114;11.532;2023-08-17T02:01:51;5.93;;;5.33;;
15679;SDS011;15488;48.114;11.532;2023-08-17T02:04:18;5.70;;;5.20;;
15679;SDS011;15488;48.114;11.532;2023-08-17T02:06:46;7.37;;;5.57;;
15679;SDS011;15488;48.114;11.532;2023-08-17T02:09:13;6.00;;;5.40;;
15679;SDS011;15488;48.114;11.532;2023-08-17T02:11:41;6.47;;;5.70;;
15679;SDS011;15488;48.114;11.532;2023-08-17T02:14:09;5.93;;;5.30;;
15679;SDS011;15488;48.114;11.532;2023-08-17T02:16:37;5.93;;;5.43;;
15679;SDS011;15488;48.114;11.532;2023-08-17T02:19:04;6.03;;;5.53;;
15679;SDS011;15488;48.114;11.532;2023-08-17T02:21:32;6.37;;;5.70;;
15679;SDS011;15488;48.114;11.532;2023-08-17T02:23:59;6.00;;;5.50;;
15679;SDS011;15488;48.114;11.532;2023-08-17T02:26:27;6.57;;;5.67;;
15679;SDS011;15488;48.114;11.532;2023-08-17T02:28:55;6.57;;;5.77;;
15679;SDS011;15488;48.114;11.532;2023-08-17T02:31:24;7.40;;;5.83;;
15679;SDS011;15488;48.114;11.532;2023-08-17T02:33:52;6.53;;;5.80;;
15679;SDS011;15488;48.114;11.532;2023-08-17T02:36:23;6.23;;;5.63;;
15679;SDS011;15488;48.114;11.532;2023-08-17T02:38:50;6.57;;;5.70;;
15679;SDS011;15488;48.114;11.532;2023-08-17T02:41:18;6.20;;;5.70;;
15679;SDS011;15488;48.114;11.532;2023-08-17T02:43:46;6.27;;;5.73;;
15679;SDS011;15488;48.114;11.532;2023-08-17T02:46:14;6.60;;;5.90;;
15679;SDS011;15488;48.114;11.532;2023-08-17T02:48:43;6.67;;;5.90;;
15679;SDS011;15488;48.114;11.532;2023-08-17T02:51:10;6.73;;;6.13;;
15679;SDS011;15488;48.114;11.532;2023-08-17T02:53:37;6.33;;;5.73;;
15679;SDS011;15488;48.114;11.532;2023-08-17T02:56:05;6.63;;;5.93;;
15679;SDS011;15488;48.114;11.532;2023-08-17T02:58:35;7.87;;;6.30;;
15679;SDS011;15488;48.114;11.532;2023-08-17T03:01:04;6.87;;;6.17;;
15679;SDS011;15488;48.114;11.532;2023-08-17T03:03:31;6.80;;;6.20;;
15679;SDS011;15488;48.114;11.532;2023-08-17T03:06:00;6.70;;;6.07;;
15679;SDS011;15488;48.114;11.532;2023-08-17T03:08:28;6.17;;;5.60;;
15679;SDS011;15488;48.114;11.532;2023-08-17T03:10:55;7.47;;;6.73;;
15679;SDS011;15488;48.114;11.532;2023-08-17T03:13:23;6.83;;;6.10;;
15679;SDS011;15488;48.114;11.532;2023-08-17T03:15:50;7.00;;;6.40;;
15679;SDS011;15488;48.114;11.532;2023-08-17T03:18:18;7.13;;;6.43;;
15679;SDS011;15488;48.114;11.532;2023-08-17T03:20:45;6.50;;;5.90;;
15679;SDS011;15488;48.114;11.532;2023-08-17T03:23:14;6.93;;;6.33;;
15679;SDS011;15488;48.114;11.532;2023-08-17T03:25:41;6.80;;;6.03;;
15679;SDS011;15488;48.114;11.532;2023-08-17T03:28:10;6.70;;;6.07;;
15679;SDS011;15488;48.114;11.532;2023-08-17T03:30:38;6.43;;;5.90;;
15679;SDS011;15488;48.114;11.532;2023-08-17T03:33:05;6.70;;;6.03;;
15679;SDS011;15488;48.114;11.532;2023-08-17T03:35:33;6.90;;;6.30;;
15679;SDS011;15488;48.114;11.532;2023-08-17T03:38:00;6.83;;;6.23;;
15679;SDS011;15488;48.114;11.532;2023-08-17T03:40:29;6.37;;;5.77;;
15679;SDS011;15488;48.114;11.532;2023-08-17T03:42:56;6.47;;;5.90;;
15679;SDS011;15488;48.114;11.532;2023-08-17T03:45:24;6.80;;;6.20;;
15679;SDS011;15488;48.114;11.532;2023-08-17T03:47:51;6.47;;;5.90;;
15679;SDS011;15488;48.114;11.532;2023-08-17T03:50:19;6.57;;;5.97;;
15679;SDS011;15488;48.114;11.532;2023-08-17T03:52:46;7.00;;;6.40;;
15679;SDS011;15488;48.114;11.532;2023-08-17T03:55:14;6.90;;;6.20;;
15679;SDS011;15488;48.114;11.532;2023-08-17T03:57:43;6.20;;;5.70;;
15679;SDS011;15488;48.114;11.532;2023-08-17T04:00:11;6.47;;;5.87;;
15679;SDS011;15488;48.114;11.532;2023-08-17T04:02:38;8.80;;;6.43;;
15679;SDS011;15488;48.114;11.532;2023-08-17T04:05:06;6.53;;;5.93;;
15679;SDS011;15488;48.114;11.532;2023-08-17T04:07:34;6.70;;;6.10;;
15679;SDS011;15488;48.114;11.532;2023-08-17T04:10:02;7.43;;;6.13;;
15679;SDS011;15488;48.114;11.532;2023-08-17T04:12:31;6.37;;;5.80;;
15679;SDS011;15488;48.114;11.532;2023-08-17T04:14:59;6.60;;;6.00;;
15679;SDS011;15488;48.114;11.532;2023-08-17T04:17:27;6.80;;;6.10;;
15679;SDS011;15488;48.114;11.532;2023-08-17T04:19:55;6.73;;;6.03;;
15679;SDS011;15488;48.114;11.532;2023-08-17T04:22:23;7.00;;;6.40;;
15679;SDS011;15488;48.114;11.532;2023-08-17T04:24:51;7.47;;;6.67;;
15679;SDS011;15488;48.114;11.532;2023-08-17T04:27:18;6.73;;;6.20;;
15679;SDS011;15488;48.114;11.532;2023-08-17T04:29:45;7.00;;;6.30;;
15679;SDS011;15488;48.114;11.532;2023-08-17T04:32:15;6.90;;;6.20;;
15679;SDS011;15488;48.114;11.532;2023-08-17T04:34:43;6.80;;;6.10;;
15679;SDS011;15488;48.114;11.532;2023-08-17T04:37:11;6.93;;;6.17;;
15679;SDS011;15488;48.114;11.532;2023-08-17T04:39:38;6.53;;;5.93;;
15679;SDS011;15488;48.114;11.532;2023-08-17T04:42:06;6.73;;;6.00;;
15679;SDS011;15488;48.114;11.532;2023-08-17T04:44:33;7.40;;;6.70;;
15679;SDS011;15488;48.114;11.532;2023-08-17T04:47:01;8.07;;;6.57;;
15679;SDS011;15488;48.114;11.532;2023-08-17T04:49:30;8.27;;;6.47;;
15679;SDS011;15488;48.114;11.532;2023-08-17T04:51:57;6.97;;;6.37;;
15679;SDS011;15488;48.114;11.532;2023-08-17T04:54:25;7.83;;;6.60;;
15679;SDS011;15488;48.114;11.532;2023-08-17T04:56:52;7.40;;;6.70;;
15679;SDS011;15488;48.114;11.532;2023-08-17T04:59:20;7.03;;;6.33;;
15679;SDS011;15488;48.114;11.532;2023-08-17T05:01:47;7.73;;;6.67;;
15679;SDS011;15488;48.114;11.532;2023-08-17T05:04:15;7.23;;;6.40;;
15679;SDS011;15488;48.114;11.532;2023-08-17T05:06:43;6.53;;;5.93;;
15679;SDS011;15488;48.114;11.532;2023-08-17T05:09:11;7.53;;;6.47;;
15679;SDS011;15488;48.114;11.532;2023-08-17T05:11:38;7.00;;;6.40;;
15679;SDS011;15488;48.114;11.532;2023-08-17T05:14:06;7.40;;;6.27;;
15679;SDS011;15488;48.114;11.532;2023-08-17T05:16:34;6.63;;;6.03;;
15679;SDS011;15488;48.114;11.532;2023-08-17T05:19:01;7.17;;;6.47;;
15679;SDS011;15488;48.114;11.532;2023-08-17T05:21:29;7.10;;;6.40;;
15679;SDS011;15488;48.114;11.532;2023-08-17T05:23:58;6.70;;;6.10;;
15679;SDS011;15488;48.114;11.532;2023-08-17T05:26:25;7.77;;;6.77;;
15679;SDS011;15488;48.114;11.532;2023-08-17T05:28:53;7.53;;;6.83;;
15679;SDS011;15488;48.114;11.532;2023-08-17T05:31:20;7.67;;;6.97;;
15679;SDS011;15488;48.114;11.532;2023-08-17T05:33:47;7.67;;;6.97;;
15679;SDS011;15488;48.114;11.532;2023-08-17T05:36:15;7.17;;;6.57;;
15679;SDS011;15488;48.114;11.532;2023-08-17T05:38:42;7.93;;;7.13;;
15679;SDS011;15488;48.114;11.532;2023-08-17T05:41:11;8.30;;;7.50;;
15679;SDS011;15488;48.114;11.532;2023-08-17T05:43:38;10.27;;;7.67;;
15679;SDS011;15488;48.114;11.532;2023-08-17T05:46:06;8.43;;;7.50;;
15679;SDS011;15488;48.114;11.532;2023-08-17T05:48:33;7.60;;;6.93;;
15679;SDS011;15488;48.114;11.532;2023-08-17T05:51:01;8.33;;;7.17;;
15679;SDS011;15488;48.114;11.532;2023-08-17T05:53:28;8.47;;;7.67;;
15679;SDS011;15488;48.114;11.532;2023-08-17T05:55:55;7.67;;;6.97;;
15679;SDS011;15488;48.114;11.532;2023-08-17T05:58:24;8.07;;;7.23;;
15679;SDS011;15488;48.114;11.532;2023-08-17T06:00:52;7.63;;;6.93;;
15679;SDS011;15488;48.114;11.532;2023-08-17T06:03:19;7.60;;;6.80;;
15679;SDS011;15488;48.114;11.532;2023-08-17T06:05:46;8.23;;;7.27;;
15679;SDS011;15488;48.114;11.532;2023-08-17T06:08:14;7.33;;;6.60;;
15679;SDS011;15488;48.114;11.532;2023-08-17T06:10:41;8.10;;;6.43;;
15679;SDS011;15488;48.114;11.532;2023-08-17T06:13:09;6.90;;;6.30;;
15679;SDS011;15488;48.114;11.532;2023-08-17T06:15:37;7.93;;;6.97;;
15679;SDS011;15488;48.114;11.532;2023-08-17T06:18:05;8.57;;;6.57;;
15679;SDS011;15488;48.114;11.532;2023-08-17T06:20:32;7.53;;;6.73;;
15679;SDS011;15488;48.114;11.532;2023-08-17T06:23:00;9.70;;;7.27;;
15679;SDS011;15488;48.114;11.532;2023-08-17T06:25:27;6.90;;;6.20;;
15679;SDS011;15488;48.114;11.532;2023-08-17T06:27:55;9.93;;;7.00;;
15679;SDS011;15488;48.114;11.532;2023-08-17T06:30:22;8.57;;;6.47;;
15679;SDS011;15488;48.114;11.532;2023-08-17T06:32:51;7.00;;;6.30;;
15679;SDS011;15488;48.114;11.532;2023-08-17T06:35:19;6.87;;;6.27;;
15679;SDS011;15488;48.114;11.532;2023-08-17T06:37:46;6.80;;;6.20;;
15679;SDS011;15488;48.114;11.532;2023-08-17T06:40:14;6.53;;;5.93;;
15679;SDS011;15488;48.114;11.532;2023-08-17T06:42:41;7.27;;;6.20;;
15679;SDS011;15488;48.114;11.532;2023-08-17T06:45:09;6.80;;;6.20;;
15679;SDS011;15488;48.114;11.532;2023-08-17T06:47:36;6.97;;;6.20;;
15679;SDS011;15488;48.114;11.532;2023-08-17T06:50:05;6.83;;;6.23;;
15679;SDS011;15488;48.114;11.532;2023-08-17T06:52:33;8.40;;;6.67;;
15679;SDS011;15488;48.114;11.532;2023-08-17T06:55:01;6.93;;;6.23;;
15679;SDS011;15488;48.114;11.532;2023-08-17T06:57:28;7.00;;;6.30;;
15679;SDS011;15488;48.114;11.532;2023-08-17T06:59:56;6.57;;;5.87;;
15679;SDS011;15488;48.114;11.532;2023-08-17T07:02:23;8.60;;;5.93;;
15679;SDS011;15488;48.114;11.532;2023-08-17T07:04:51;6.73;;;6.23;;
15679;SDS011;15488;48.114;11.532;2023-08-17T07:07:19;7.27;;;6.27;;
15679;SDS011;15488;48.114;11.532;2023-08-17T07:09:47;6.73;;;6.13;;
15679;SDS011;15488;48.114;11.532;2023-08-17T07:12:14;6.67;;;6.07;;
15679;SDS011;15488;48.114;11.532;2023-08-17T07:14:42;6.63;;;6.03;;
15679;SDS011;15488;48.114;11.532;2023-08-17T07:17:09;6.80;;;6.03;;
15679;SDS011;15488;48.114;11.532;2023-08-17T07:19:37;6.60;;;6.00;;
15679;SDS011;15488;48.114;11.532;2023-08-17T07:22:04;6.93;;;6.23;;
15679;SDS011;15488;48.114;11.532;2023-08-17T07:24:33;6.70;;;6.20;;
15679;SDS011;15488;48.114;11.532;2023-08-17T07:27:01;6.63;;;6.07;;
15679;SDS011;15488;48.114;11.532;2023-08-17T07:29:28;7.03;;;6.43;;
15679;SDS011;15488;48.114;11.532;2023-08-17T07:31:56;7.17;;;6.47;;
15679;SDS011;15488;48.114;11.532;2023-08-17T07:34:26;7.30;;;6.27;;
15679;SDS011;15488;48.114;11.532;2023-08-17T07:36:55;7.37;;;6.00;;
15679;SDS011;15488;48.114;11.532;2023-08-17T07:39:22;7.00;;;6.30;;
15679;SDS011;15488;48.114;11.532;2023-08-17T07:41:51;6.60;;;6.00;;
15679;SDS011;15488;48.114;11.532;2023-08-17T07:44:19;7.13;;;6.50;;
15679;SDS011;15488;48.114;11.532;2023-08-17T07:46:46;6.70;;;6.10;;
15679;SDS011;15488;48.114;11.532;2023-08-17T07:49:13;7.00;;;6.20;;
15679;SDS011;15488;48.114;11.532;2023-08-17T07:51:41;6.97;;;6.30;;
15679;SDS011;15488;48.114;11.532;2023-08-17T07:54:09;7.27;;;6.00;;
15679;SDS011;15488;48.114;11.532;2023-08-17T07:56:36;6.60;;;6.00;;
15679;SDS011;15488;48.114;11.532;2023-08-17T07:59:05;6.97;;;6.37;;
15679;SDS011;15488;48.114;11.532;2023-08-17T08:01:32;6.60;;;6.00;;
15679;SDS011;15488;48.114;11.532;2023-08-17T08:04:00;6.90;;;6.18;;
15679;SDS011;15488;48.114;11.532;2023-08-17T08:06:27;7.23;;;6.53;;
15679;SDS011;15488;48.114;11.532;2023-08-17T08:08:55;6.97;;;6.35;;
15679;SDS011;15488;48.114;11.532;2023-08-17T08:11:22;7.60;;;6.90;;
15679;SDS011;15488;48.114;11.532;2023-08-17T08:13:50;7.80;;;7.17;;
15679;SDS011;15488;48.114;11.532;2023-08-17T08:16:18;7.15;;;6.55;;
15679;SDS011;15488;48.114;11.532;2023-08-17T08:18:46;7.55;;;6.95;;
15679;SDS011;15488;48.114;11.532;2023-08-17T08:21:13;6.95;;;6.38;;
15679;SDS011;15488;48.114;11.532;2023-08-17T08:23:41;7.07;;;6.40;;
15679;SDS011;15488;48.114;11.532;2023-08-17T08:26:08;7.05;;;6.35;;
15679;SDS011;15488;48.114;11.532;2023-08-17T08:28:35;7.25;;;6.65;;
15679;SDS011;15488;48.114;11.532;2023-08-17T08:31:03;6.72;;;6.20;;
15679;SDS011;15488;48.114;11.532;2023-08-17T08:33:32;7.75;;;6.75;;
15679;SDS011;15488;48.114;11.532;2023-08-17T08:35:59;7.40;;;6.70;;
15679;SDS011;15488;48.114;11.532;2023-08-17T08:38:27;7.45;;;6.72;;
15679;SDS011;15488;48.114;11.532;2023-08-17T08:40:54;6.70;;;6.10;;
15679;SDS011;15488;48.114;11.532;2023-08-17T08:43:22;7.15;;;6.45;;
15679;SDS011;15488;48.114;11.532;2023-08-17T08:45:50;10.40;;;6.63;;
15679;SDS011;15488;48.114;11.532;2023-08-17T08:48:19;6.55;;;6.05;;
15679;SDS011;15488;48.114;11.532;2023-08-17T08:50:54;7.45;;;6.80;;
15679;SDS011;15488;48.114;11.532;2023-08-17T08:53:24;6.75;;;6.13;;
15679;SDS011;15488;48.114;11.532;2023-08-17T08:55:58;6.70;;;6.05;;
15679;SDS011;15488;48.114;11.532;2023-08-17T08:58:27;7.13;;;6.53;;
15679;SDS011;15488;48.114;11.532;2023-08-17T09:00:57;6.90;;;6.30;;
15679;SDS011;15488;48.114;11.532;2023-08-17T09:03:26;6.68;;;6.07;;
15679;SDS011;15488;48.114;11.532;2023-08-17T09:05:56;6.35;;;5.85;;
15679;SDS011;15488;48.114;11.532;2023-08-17T09:08:25;6.18;;;5.68;;
15679;SDS011;15488;48.114;11.532;2023-08-17T09:10:53;6.13;;;5.47;;
15679;SDS011;15488;48.114;11.532;2023-08-17T09:13:21;5.93;;;5.43;;
15679;SDS011;15488;48.114;11.532;2023-08-17T09:15:48;6.25;;;5.75;;
15679;SDS011;15488;48.114;11.532;2023-08-17T09:18:16;6.03;;;5.53;;
15679;SDS011;15488;48.114;11.532;2023-08-17T09:20:44;5.60;;;5.18;;
15679;SDS011;15488;48.114;11.532;2023-08-17T09:23:14;5.82;;;5.40;;
15679;SDS011;15488;48.114;11.532;2023-08-17T09:25:44;5.68;;;5.18;;
15679;SDS011;15488;48.114;11.532;2023-08-17T09:28:13;5.20;;;4.80;;
15679;SDS011;15488;48.114;11.532;2023-08-17T09:30:52;5.75;;;5.25;;
15679;SDS011;15488;48.114;11.532;2023-08-17T09:33:20;5.85;;;5.35;;
15679;SDS011;15488;48.114;11.532;2023-08-17T09:35:49;5.35;;;4.95;;
15679;SDS011;15488;48.114;11.532;2023-08-17T09:38:18;5.70;;;5.20;;
15679;SDS011;15488;48.114;11.532;2023-08-17T09:40:45;5.55;;;5.15;;
15679;SDS011;15488;48.114;11.532;2023-08-17T09:43:13;5.10;;;4.70;;
15679;SDS011;15488;48.114;11.532;2023-08-17T09:45:42;5.47;;;4.97;;
15679;SDS011;15488;48.114;11.532;2023-08-17T09:48:12;5.50;;;5.00;;
15679;SDS011;15488;48.114;11.532;2023-08-17T09:50:42;5.63;;;4.80;;
15679;SDS011;15488;48.114;11.532;2023-08-17T09:53:12;5.28;;;4.88;;
15679;SDS011;15488;48.114;11.532;2023-08-17T09:55:42;5.70;;;5.20;;
15679;SDS011;15488;48.114;11.532;2023-08-17T09:58:10;5.80;;;5.30;;
15679;SDS011;15488;48.114;11.532;2023-08-17T10:00:40;8.23;;;5.75;;
15679;SDS011;15488;48.114;11.532;2023-08-17T10:03:11;5.85;;;5.38;;
15679;SDS011;15488;48.114;11.532;2023-08-17T10:05:42;5.10;;;4.70;;
15679;SDS011;15488;48.114;11.532;2023-08-17T10:08:11;5.55;;;5.15;;
15679;SDS011;15488;48.114;11.532;2023-08-17T10:10:43;5.75;;;5.20;;
15679;SDS011;15488;48.114;11.532;2023-08-17T10:13:12;5.63;;;4.95;;
15679;SDS011;15488;48.114;11.532;2023-08-17T10:15:48;5.43;;;4.97;;
15679;SDS011;15488;48.114;11.532;2023-08-17T10:18:29;5.68;;;5.18;;
15679;SDS011;15488;48.114;11.532;2023-08-17T10:21:02;5.20;;;4.70;;
15679;SDS011;15488;48.114;11.532;2023-08-17T10:23:32;5.68;;;5.28;;
15679;SDS011;15488;48.114;11.532;2023-08-17T10:26:02;5.05;;;4.65;;
15679;SDS011;15488;48.114;11.532;2023-08-17T10:28:30;5.10;;;4.63;;
15679;SDS011;15488;48.114;11.532;2023-08-17T10:30:58;4.90;;;4.20;;
15679;SDS011;15488;48.114;11.532;2023-08-17T10:33:26;5.85;;;5.35;;
15679;SDS011;15488;48.114;11.532;2023-08-17T10:35:55;6.35;;;5.85;;
15679;SDS011;15488;48.114;11.532;2023-08-17T10:38:23;5.45;;;4.97;;
15679;SDS011;15488;48.114;11.532;2023-08-17T10:43:42;6.40;;;5.90;;
15679;SDS011;15488;48.114;11.532;2023-08-17T10:46:20;7.38;;;6.78;;
15679;SDS011;15488;48.114;11.532;2023-08-17T10:49:00;6.65;;;6.03;;
15679;SDS011;15488;48.114;11.532;2023-08-17T10:51:30;6.78;;;6.18;;
15679;SDS011;15488;48.114;11.532;2023-08-17T10:53:58;6.63;;;6.03;;
15679;SDS011;15488;48.114;11.532;2023-08-17T10:56:29;6.10;;;5.68;;
15679;SDS011;15488;48.114;11.532;2023-08-17T10:59:00;6.82;;;6.22;;
15679;SDS011;15488;48.114;11.532;2023-08-17T11:01:32;6.75;;;6.05;;
15679;SDS011;15488;48.114;11.532;2023-08-17T11:04:10;7.78;;;6.78;;
15679;SDS011;15488;48.114;11.532;2023-08-17T11:06:39;7.00;;;6.40;;
15679;SDS011;15488;48.114;11.532;2023-08-17T11:09:08;6.05;;;5.55;;
15679;SDS011;15488;48.114;11.532;2023-08-17T11:11:38;6.63;;;6.13;;
15679;SDS011;15488;48.114;11.532;2023-08-17T11:14:05;6.80;;;6.30;;
15679;SDS011;15488;48.114;11.532;2023-08-17T11:16:33;6.07;;;5.57;;
15679;SDS011;15488;48.114;11.532;2023-08-17T11:19:00;6.55;;;5.72;;
15679;SDS011;15488;48.114;11.532;2023-08-17T11:21:28;6.22;;;5.72;;
15679;SDS011;15488;48.114;11.532;2023-08-17T11:23:56;6.28;;;5.70;;
15679;SDS011;15488;48.114;11.532;2023-08-17T11:26:24;6.38;;;5.57;;
15679;SDS011;15488;48.114;11.532;2023-08-17T11:28:54;6.30;;;5.70;;
15679;SDS011;15488;48.114;11.532;2023-08-17T11:31:21;6.13;;;5.63;;
15679;SDS011;15488;48.114;11.532;2023-08-17T11:33:49;6.18;;;5.68;;
15679;SDS011;15488;48.114;11.532;2023-08-17T11:36:16;6.10;;;5.60;;
15679;SDS011;15488;48.114;11.532;2023-08-17T11:38:44;6.03;;;5.43;;
15679;SDS011;15488;48.114;11.532;2023-08-17T11:41:12;6.07;;;5.50;;
15679;SDS011;15488;48.114;11.532;2023-08-17T11:43:42;5.53;;;5.13;;
15679;SDS011;15488;48.114;11.532;2023-08-17T11:46:11;5.18;;;4.78;;
15679;SDS011;15488;48.114;11.532;2023-08-17T11:48:38;6.85;;;5.25;;
15679;SDS011;15488;48.114;11.532;2023-08-17T11:51:06;6.00;;;5.13;;
15679;SDS011;15488;48.114;11.532;2023-08-17T11:53:34;5.78;;;5.20;;
15679;SDS011;15488;48.114;11.532;2023-08-17T11:56:04;6.10;;;5.50;;
15679;SDS011;15488;48.114;11.532;2023-08-17T11:58:40;6.90;;;6.28;;
15679;SDS011;15488;48.114;11.532;2023-08-17T12:01:10;6.10;;;5.60;;
15679;SDS011;15488;48.114;11.532;2023-08-17T12:03:40;6.40;;;5.90;;
15679;SDS011;15488;48.114;11.532;2023-08-17T12:06:08;5.55;;;5.05;;
15679;SDS011;15488;48.114;11.532;2023-08-17T12:08:37;5.68;;;5.20;;
15679;SDS011;15488;48.114;11.532;2023-08-17T12:11:07;6.30;;;5.80;;
15679;SDS011;15488;48.114;11.532;2023-08-17T12:13:34;6.47;;;5.97;;
15679;SDS011;15488;48.114;11.532;2023-08-17T12:16:02;6.63;;;6.10;;
15679;SDS011;15488;48.114;11.532;2023-08-17T12:18:33;5.88;;;5.47;;
15679;SDS011;15488;48.114;11.532;2023-08-17T12:21:01;6.53;;;5.97;;
15679;SDS011;15488;48.114;11.532;2023-08-17T12:23:32;6.70;;;6.10;;
15679;SDS011;15488;48.114;11.532;2023-08-17T12:25:59;6.70;;;6.10;;
15679;SDS011;15488;48.114;11.532;2023-08-17T12:28:27;6.60;;;6.03;;
15679;SDS011;15488;48.114;11.532;2023-08-17T12:30:58;6.13;;;5.63;;
15679;SDS011;15488;48.114;11.532;2023-08-17T12:33:27;6.63;;;6.13;;
15679;SDS011;15488;48.114;11.532;2023-08-17T12:35:56;6.65;;;6.15;;
15679;SDS011;15488;48.114;11.532;2023-08-17T12:38:23;6.65;;;6.13;;
15679;SDS011;15488;48.114;11.532;2023-08-17T12:40:51;6.50;;;6.10;;
15679;SDS011;15488;48.114;11.532;2023-08-17T12:43:19;7.55;;;6.80;;
15679;SDS011;15488;48.114;11.532;2023-08-17T12:45:47;7.05;;;6.35;;
15679;SDS011;15488;48.114;11.532;2023-08-17T12:48:16;6.82;;;6.32;;
15679;SDS011;15488;48.114;11.532;2023-08-17T12:50:44;6.75;;;6.15;;
15679;SDS011;15488;48.114;11.532;2023-08-17T12:53:13;6.72;;;6.22;;
15679;SDS011;15488;48.114;11.532;2023-08-17T12:55:40;7.00;;;6.50;;
15679;SDS011;15488;48.114;11.532;2023-08-17T12:58:08;7.20;;;6.60;;
15679;SDS011;15488;48.114;11.532;2023-08-17T13:00:35;6.90;;;6.38;;
15679;SDS011;15488;48.114;11.532;2023-08-17T13:03:03;7.35;;;6.75;;
15679;SDS011;15488;48.114;11.532;2023-08-17T13:05:31;6.90;;;6.30;;
15679;SDS011;15488;48.114;11.532;2023-08-17T13:07:59;6.28;;;5.78;;
15679;SDS011;15488;48.114;11.532;2023-08-17T13:10:28;6.75;;;6.10;;
15679;SDS011;15488;48.114;11.532;2023-08-17T13:12:56;6.40;;;5.97;;
15679;SDS011;15488;48.114;11.532;2023-08-17T13:15:24;7.03;;;6.35;;
15679;SDS011;15488;48.114;11.532;2023-08-17T13:17:52;6.32;;;5.82;;
15679;SDS011;15488;48.114;11.532;2023-08-17T13:20:19;7.05;;;6.55;;
15679;SDS011;15488;48.114;11.532;2023-08-17T13:22:47;6.35;;;5.85;;
15679;SDS011;15488;48.114;11.532;2023-08-17T13:25:14;6.85;;;6.40;;
15679;SDS011;15488;48.114;11.532;2023-08-17T13:27:43;6.63;;;6.13;;
15679;SDS011;15488;48.114;11.532;2023-08-17T13:30:11;6.85;;;6.35;;
15679;SDS011;15488;48.114;11.532;2023-08-17T13:32:38;7.30;;;6.70;;
15679;SDS011;15488;48.114;11.532;2023-08-17T13:35:06;6.70;;;6.20;;
15679;SDS011;15488;48.114;11.532;2023-08-17T13:37:35;6.80;;;6.40;;
15679;SDS011;15488;48.114;11.532;2023-08-17T13:40:03;6.60;;;6.05;;
15679;SDS011;15488;48.114;11.532;2023-08-17T13:42:31;6.57;;;6.18;;
15679;SDS011;15488;48.114;11.532;2023-08-17T13:45:01;6.70;;;6.30;;
15679;SDS011;15488;48.114;11.532;2023-08-17T13:47:28;7.32;;;6.78;;
15679;SDS011;15488;48.114;11.532;2023-08-17T13:49:56;7.13;;;6.63;;
15679;SDS011;15488;48.114;11.532;2023-08-17T13:52:23;7.10;;;6.50;;
15679;SDS011;15488;48.114;11.532;2023-08-17T13:54:51;6.93;;;6.43;;
15679;SDS011;15488;48.114;11.532;2023-08-17T13:57:18;6.75;;;6.35;;
15679;SDS011;15488;48.114;11.532;2023-08-17T13:59:45;7.18;;;6.68;;
15679;SDS011;15488;48.114;11.532;2023-08-17T14:02:14;7.20;;;6.70;;
15679;SDS011;15488;48.114;11.532;2023-08-17T14:04:42;8.07;;;7.47;;
15679;SDS011;15488;48.114;11.532;2023-08-17T14:07:09;8.15;;;7.55;;
15679;SDS011;15488;48.114;11.532;2023-08-17T14:09:37;7.55;;;6.95;;
15679;SDS011;15488;48.114;11.532;2023-08-17T14:12:04;8.65;;;7.95;;
15679;SDS011;15488;48.114;11.532;2023-08-17T14:14:32;7.50;;;7.00;;
15679;SDS011;15488;48.114;11.532;2023-08-17T14:16:59;7.55;;;6.95;;
15679;SDS011;15488;48.114;11.532;2023-08-17T14:19:29;10.65;;;9.80;;
15679;SDS011;15488;48.114;11.532;2023-08-17T14:21:56;8.43;;;7.72;;
15679;SDS011;15488;48.114;11.532;2023-08-17T14:24:25;8.18;;;7.28;;
15679;SDS011;15488;48.114;11.532;2023-08-17T14:26:53;7.13;;;6.53;;
15679;SDS011;15488;48.114;11.532;2023-08-17T14:29:21;6.72;;;6.13;;
15679;SDS011;15488;48.114;11.532;2023-08-17T14:31:49;6.80;;;6.30;;
15679;SDS011;15488;48.114;11.532;2023-08-17T14:34:17;7.45;;;6.65;;
15679;SDS011;15488;48.114;11.532;2023-08-17T14:36:45;7.25;;;6.47;;
15679;SDS011;15488;48.114;11.532;2023-08-17T14:39:13;7.07;;;6.47;;
15679;SDS011;15488;48.114;11.532;2023-08-17T14:41:40;7.55;;;6.85;;